createdAt,value
2022-08-10T00:00:03.956Z,21.54
2022-08-10T00:02:33.081Z,21.55
2022-08-10T00:05:01.042Z,21.36
2022-08-10T00:07:30.343Z,21.24
2022-08-10T00:09:58.213Z,21.31
2022-08-10T00:12:53.225Z,21.14
2022-08-10T00:15:52.559Z,21.16
2022-08-10T00:18:04.104Z,20.99
2022-08-10T00:20:31.980Z,20.62
2022-08-10T00:23:01.326Z,20.59
2022-08-10T00:25:29.465Z,20.38
2022-08-10T00:28:03.676Z,20.32
2022-08-10T00:30:32.113Z,20.14
2022-08-10T00:33:00.122Z,20.37
2022-08-10T00:35:28.106Z,20.14
2022-08-10T00:37:57.692Z,20.01
2022-08-10T00:40:37.239Z,20.01
2022-08-10T00:43:06.244Z,19.93
2022-08-10T00:45:34.185Z,19.95
2022-08-10T00:48:02.242Z,19.86
2022-08-10T00:50:30.639Z,19.95
2022-08-10T00:52:58.941Z,20.05
2022-08-10T00:55:28.600Z,19.99
2022-08-10T00:57:56.669Z,20.20
2022-08-10T01:00:24.619Z,20.14
2022-08-10T01:02:53.176Z,20.03
2022-08-10T01:05:21.725Z,19.97
2022-08-10T01:08:01.286Z,19.82
2022-08-10T01:10:42.005Z,19.54
2022-08-10T01:13:14.703Z,19.54
2022-08-10T01:15:50.529Z,19.55
2022-08-10T01:18:25.418Z,19.52
2022-08-10T01:21:09.595Z,19.52
2022-08-10T01:24:08.230Z,19.62
2022-08-10T01:26:44.330Z,19.68
2022-08-10T01:29:26.980Z,19.68
2022-08-10T01:31:58.703Z,19.57
2022-08-10T01:34:31.700Z,19.53
2022-08-10T01:37:03.563Z,19.29
2022-08-10T01:39:34.390Z,19.46
2022-08-10T01:42:04.263Z,19.54
2022-08-10T01:44:36.716Z,19.45
2022-08-10T01:47:26.336Z,19.50
2022-08-10T01:49:59.346Z,19.55
2022-08-10T01:52:27.673Z,19.46
2022-08-10T01:54:56.386Z,19.18
2022-08-10T01:57:25.825Z,19.16
2022-08-10T02:00:01.960Z,19.12
2022-08-10T02:02:35.463Z,19.16
2022-08-10T02:05:05.981Z,19.15
2022-08-10T02:07:37.775Z,19.10
2022-08-10T02:10:10.889Z,19.12
2022-08-10T02:12:39.282Z,19.22
2022-08-10T02:15:12.484Z,19.08
2022-08-10T02:17:59.654Z,19.00
2022-08-10T02:20:34.132Z,19.05
2022-08-10T02:23:04.865Z,18.97
2022-08-10T02:25:41.574Z,18.90
2022-08-10T02:28:27.023Z,18.79
2022-08-10T02:31:03.015Z,18.92
2022-08-10T02:33:37.291Z,18.98
2022-08-10T02:36:07.661Z,18.93
2022-08-10T02:38:58.743Z,18.84
2022-08-10T02:45:01.996Z,18.65
2022-08-10T02:45:17.700Z,18.46
2022-08-10T02:47:19.492Z,18.62
2022-08-10T02:49:51.282Z,18.59
2022-08-10T02:52:22.384Z,18.68
2022-08-10T02:54:52.990Z,18.64
2022-08-10T02:57:23.731Z,18.64
2022-08-10T02:59:52.826Z,18.64
2022-08-10T03:02:27.982Z,18.37
2022-08-10T03:05:00.658Z,18.17
2022-08-10T03:07:44.014Z,18.18
2022-08-10T03:10:15.573Z,18.03
2022-08-10T03:12:43.972Z,18.07
2022-08-10T03:15:15.825Z,18.00
2022-08-10T03:17:56.982Z,17.97
2022-08-10T03:20:37.275Z,18.05
2022-08-10T03:23:10.622Z,18.07
2022-08-10T03:25:38.870Z,18.07
2022-08-10T03:28:08.354Z,18.24
2022-08-10T03:30:36.355Z,18.24
2022-08-10T03:33:06.434Z,18.33
2022-08-10T03:35:34.684Z,18.25
2022-08-10T03:38:03.295Z,18.22
2022-08-10T03:40:45.434Z,18.18
2022-08-10T03:43:17.215Z,18.32
2022-08-10T03:45:55.430Z,18.42
2022-08-10T03:48:32.061Z,18.40
2022-08-10T03:51:13.285Z,18.35
2022-08-10T03:54:06.155Z,18.28
2022-08-10T03:56:32.451Z,18.44
2022-08-10T03:59:01.079Z,18.32
2022-08-10T04:02:43.630Z,18.38
2022-08-10T04:04:23.651Z,18.07
2022-08-10T04:06:54.860Z,18.22
2022-08-10T04:09:23.843Z,18.07
2022-08-10T04:11:51.730Z,17.94
2022-08-10T04:14:38.811Z,17.76
2022-08-10T04:17:12.017Z,17.72
2022-08-10T04:19:47.118Z,17.60
2022-08-10T04:22:17.996Z,17.58
2022-08-10T04:24:46.560Z,17.95
2022-08-10T04:27:14.551Z,18.14
2022-08-10T04:29:42.831Z,18.16
2022-08-10T04:32:11.360Z,18.10
2022-08-10T04:34:43.249Z,18.02
2022-08-10T04:37:11.677Z,17.99
2022-08-10T04:39:40.317Z,18.06
2022-08-10T04:42:08.813Z,18.01
2022-08-10T04:44:36.715Z,18.09
2022-08-10T04:47:05.181Z,18.23
2022-08-10T04:49:54.954Z,18.32
2022-08-10T04:52:31.496Z,18.59
2022-08-10T04:54:59.478Z,18.39
2022-08-10T04:57:27.746Z,18.53
2022-08-10T04:59:55.644Z,18.64
2022-08-10T05:02:31.456Z,18.69
2022-08-10T05:05:00.081Z,18.80
2022-08-10T05:07:29.385Z,18.94
2022-08-10T05:10:03.080Z,18.97
2022-08-10T05:12:35.939Z,18.91
2022-08-10T05:15:08.227Z,19.25
2022-08-10T05:17:36.675Z,19.43
2022-08-10T05:20:07.229Z,19.61
2022-08-10T05:22:38.089Z,19.64
2022-08-10T05:25:08.054Z,19.74
2022-08-10T05:27:36.364Z,19.90
2022-08-10T05:30:05.650Z,19.91
2022-08-10T05:32:33.938Z,19.90
2022-08-10T05:35:22.038Z,19.99
2022-08-10T05:38:11.419Z,20.29
2022-08-10T05:40:41.073Z,20.14
2022-08-10T05:43:14.985Z,20.38
2022-08-10T05:46:19.451Z,20.44
2022-08-10T05:48:55.671Z,20.66
2022-08-10T05:51:21.568Z,20.69
2022-08-10T05:54:01.205Z,20.83
2022-08-10T05:56:53.253Z,20.94
2022-08-10T06:00:11.020Z,20.73
2022-08-10T06:02:32.710Z,20.58
2022-08-10T06:04:58.537Z,20.83
2022-08-10T06:07:27.926Z,20.85
2022-08-10T06:09:58.598Z,20.92
2022-08-10T06:12:30.872Z,20.98
2022-08-10T06:15:05.796Z,21.06
2022-08-10T06:17:38.744Z,21.13
2022-08-10T06:20:07.689Z,21.36
2022-08-10T06:22:36.313Z,21.74
2022-08-10T06:25:38.068Z,21.85
2022-08-10T06:27:55.647Z,21.97
2022-08-10T06:30:24.468Z,22.09
2022-08-10T06:32:54.131Z,21.90
2022-08-10T06:35:22.600Z,21.99
2022-08-10T06:37:52.036Z,22.06
2022-08-10T06:40:21.656Z,22.14
2022-08-10T06:42:50.299Z,22.25
2022-08-10T06:45:21.635Z,22.24
2022-08-10T06:47:51.758Z,22.35
2022-08-10T06:50:34.796Z,22.31
2022-08-10T06:53:13.700Z,22.47
2022-08-10T06:55:55.623Z,22.95
2022-08-10T06:58:27.670Z,23.14
2022-08-10T07:00:56.398Z,23.49
2022-08-10T07:03:28.136Z,23.35
2022-08-10T07:05:56.444Z,23.42
2022-08-10T07:08:25.037Z,23.50
2022-08-10T07:10:54.673Z,23.81
2022-08-10T07:14:17.079Z,23.95
2022-08-10T07:16:13.865Z,24.25
2022-08-10T07:18:43.539Z,24.21
2022-08-10T07:21:12.704Z,24.35
2022-08-10T07:23:57.240Z,24.65
2022-08-10T07:26:30.377Z,24.49
2022-08-10T07:28:59.418Z,24.57
2022-08-10T07:31:56.647Z,24.68
2022-08-10T07:34:21.829Z,25.23
2022-08-10T07:36:57.393Z,24.95
2022-08-10T07:40:02.459Z,24.98
2022-08-10T07:42:16.852Z,25.01
2022-08-10T07:44:46.196Z,24.95
2022-08-10T07:47:17.354Z,25.29
2022-08-10T07:49:46.531Z,25.45
2022-08-10T07:52:14.426Z,25.58
2022-08-10T07:54:44.094Z,25.59
2022-08-10T07:57:23.879Z,25.80
2022-08-10T08:00:06.377Z,25.81
2022-08-10T08:02:43.204Z,26.13
2022-08-10T08:05:13.628Z,26.12
2022-08-10T08:08:02.416Z,26.34
2022-08-10T08:10:31.219Z,26.30
2022-08-10T08:13:01.427Z,26.58
2022-08-10T08:16:19.108Z,26.68
2022-08-10T08:18:24.427Z,26.93
2022-08-10T08:20:54.432Z,26.72
2022-08-10T08:24:14.786Z,26.80
2022-08-10T08:26:11.828Z,26.95
2022-08-10T08:28:45.906Z,27.09
2022-08-10T08:31:15.338Z,27.33
2022-08-10T08:33:44.738Z,27.54
2022-08-10T08:36:16.040Z,27.48
2022-08-10T08:38:44.322Z,27.86
2022-08-10T08:41:25.807Z,28.20
2022-08-10T08:44:05.670Z,28.20
2022-08-10T08:46:45.818Z,28.09
2022-08-10T08:50:04.722Z,28.25
2022-08-10T08:52:33.205Z,28.49
2022-08-10T08:56:03.808Z,28.65
2022-08-10T08:58:15.725Z,28.08
2022-08-10T09:00:46.982Z,27.97
2022-08-10T09:03:45.109Z,28.29
2022-08-10T09:06:28.049Z,28.18
2022-08-10T09:09:16.695Z,28.20
2022-08-10T09:11:56.120Z,28.71
2022-08-10T09:14:27.369Z,28.66
2022-08-10T09:17:05.226Z,29.13
2022-08-10T09:19:36.858Z,29.01
2022-08-10T09:22:18.924Z,28.88
2022-08-10T09:24:51.485Z,28.76
2022-08-10T09:27:22.996Z,29.34
2022-08-10T09:29:55.549Z,29.50
2022-08-10T09:36:14.250Z,29.53
2022-08-10T09:36:24.402Z,30.08
2022-08-10T09:38:18.533Z,29.87
2022-08-10T09:40:59.008Z,30.00
2022-08-10T09:43:45.153Z,30.30
2022-08-10T09:46:22.454Z,30.56
2022-08-10T09:49:03.325Z,30.50
2022-08-10T09:51:46.635Z,31.08
2022-08-10T09:54:22.747Z,31.08
2022-08-10T09:57:03.095Z,30.91
2022-08-10T10:00:01.509Z,31.06
2022-08-10T10:02:40.649Z,31.43
2022-08-10T10:05:19.242Z,30.81
2022-08-10T10:07:52.540Z,30.59
2022-08-10T10:10:23.411Z,31.28
2022-08-10T10:12:54.897Z,31.33
2022-08-10T10:15:31.326Z,31.17
2022-08-10T10:18:11.486Z,31.47
2022-08-10T10:20:46.353Z,31.51
2022-08-10T10:23:19.709Z,31.35
2022-08-10T10:25:52.613Z,31.24
2022-08-10T10:29:11.260Z,32.01
2022-08-10T10:31:30.251Z,31.77
2022-08-10T10:34:10.362Z,32.50
2022-08-10T10:36:41.501Z,32.16
2022-08-10T10:39:10.668Z,31.99
2022-08-10T10:42:03.389Z,31.79
2022-08-10T10:44:45.437Z,32.52
2022-08-10T10:47:25.738Z,32.66
2022-08-10T10:49:57.341Z,32.51
2022-08-10T10:52:39.188Z,32.29
2022-08-10T10:55:15.219Z,32.84
2022-08-10T10:58:10.491Z,33.23
2022-08-10T11:00:41.432Z,33.83
2022-08-10T11:03:22.500Z,33.37
2022-08-10T11:05:56.521Z,33.83
2022-08-10T11:08:29.106Z,34.69
2022-08-10T11:11:02.016Z,35.24
2022-08-10T11:14:23.244Z,35.39
2022-08-10T11:16:29.901Z,35.73
2022-08-10T11:19:00.654Z,35.56
2022-08-10T11:21:44.498Z,35.58
2022-08-10T11:24:44.356Z,34.99
2022-08-10T11:27:21.945Z,35.08
2022-08-10T11:29:59.202Z,34.76
2022-08-10T11:32:33.047Z,35.86
2022-08-10T11:35:11.930Z,35.55
2022-08-10T11:38:31.304Z,36.51
2022-08-10T11:40:40.478Z,35.73
2022-08-10T11:43:12.646Z,36.31
2022-08-10T11:45:52.405Z,37.12
2022-08-10T11:48:53.149Z,36.62
2022-08-10T11:51:23.820Z,37.54
2022-08-10T11:54:08.933Z,37.42
2022-08-10T11:56:46.477Z,36.95
2022-08-10T11:59:33.777Z,36.64
2022-08-10T12:02:01.960Z,36.90
2022-08-10T12:04:30.650Z,36.79
2022-08-10T12:06:59.387Z,38.04
2022-08-10T12:10:12.095Z,39.11
2022-08-10T12:12:18.018Z,38.27
2022-08-10T12:14:51.904Z,38.23
2022-08-10T12:17:23.886Z,39.22
2022-08-10T12:20:02.062Z,38.15
2022-08-10T12:22:34.585Z,38.30
2022-08-10T12:25:05.293Z,37.62
2022-08-10T12:27:40.211Z,37.57
2022-08-10T12:30:09.627Z,37.87
2022-08-10T12:32:43.652Z,38.47
2022-08-10T12:35:22.660Z,38.15
2022-08-10T12:38:04.255Z,38.93
2022-08-10T12:40:36.770Z,38.27
2022-08-10T12:44:05.211Z,37.83
2022-08-10T12:46:07.013Z,37.25
2022-08-10T12:48:39.100Z,37.46
2022-08-10T12:51:14.175Z,38.46
2022-08-10T12:53:48.954Z,38.74
2022-08-10T12:56:27.085Z,39.47
2022-08-10T12:59:01.172Z,39.73
2022-08-10T13:02:06.935Z,39.34
2022-08-10T13:04:27.010Z,39.53
2022-08-10T13:06:55.179Z,38.65
2022-08-10T13:09:23.781Z,38.57
2022-08-10T13:12:39.415Z,39.72
2022-08-10T13:14:50.964Z,39.92
2022-08-10T13:17:24.604Z,39.62
2022-08-10T13:20:14.376Z,38.62
2022-08-10T13:22:43.050Z,38.97
2022-08-10T13:25:11.378Z,38.86
2022-08-10T13:28:03.331Z,39.26
2022-08-10T13:30:33.518Z,39.55
2022-08-10T13:33:06.838Z,39.56
2022-08-10T13:35:35.340Z,41.43
2022-08-10T13:38:05.106Z,41.57
2022-08-10T13:40:34.008Z,40.12
2022-08-10T13:43:04.779Z,40.73
2022-08-10T13:45:35.366Z,39.73
2022-08-10T13:48:10.766Z,39.38
2022-08-10T13:50:39.860Z,39.82
2022-08-10T13:53:14.758Z,40.86
2022-08-10T13:55:48.734Z,40.41
2022-08-10T13:58:25.028Z,40.98
2022-08-10T14:00:55.623Z,41.18
2022-08-10T14:03:24.421Z,40.59
2022-08-10T14:05:54.526Z,39.45
2022-08-10T14:08:26.623Z,39.30
2022-08-10T14:11:02.003Z,40.18
2022-08-10T14:13:42.286Z,40.87
2022-08-10T14:16:13.426Z,39.80
2022-08-10T14:18:44.947Z,39.44
2022-08-10T14:21:13.322Z,40.00
2022-08-10T14:23:42.075Z,40.61
2022-08-10T14:26:20.184Z,40.43
2022-08-10T14:28:53.918Z,40.03
2022-08-10T14:31:26.934Z,40.75
2022-08-10T14:33:57.580Z,40.47
2022-08-10T14:36:31.928Z,40.85
2022-08-10T14:39:02.340Z,40.08
2022-08-10T14:42:04.455Z,39.42
2022-08-10T14:44:22.071Z,40.11
2022-08-10T14:46:57.035Z,41.01
2022-08-10T14:49:27.225Z,39.99
2022-08-10T14:52:01.248Z,42.32
2022-08-10T14:54:30.159Z,40.63
2022-08-10T14:57:11.129Z,40.14
2022-08-10T15:00:25.522Z,42.16
2022-08-10T15:02:40.105Z,42.94
2022-08-10T15:05:19.580Z,40.69
2022-08-10T15:07:59.201Z,41.33
2022-08-10T15:10:28.794Z,42.22
2022-08-10T15:12:58.564Z,40.71
2022-08-10T15:15:28.836Z,40.83
2022-08-10T15:17:59.711Z,40.15
2022-08-10T15:20:31.436Z,41.71
2022-08-10T15:23:01.244Z,42.96
2022-08-10T15:25:30.651Z,39.97
2022-08-10T15:28:08.011Z,40.02
2022-08-10T15:30:42.647Z,39.33
2022-08-10T15:33:57.558Z,39.99
2022-08-10T15:36:38.534Z,42.76
2022-08-10T15:39:16.671Z,41.57
2022-08-10T15:42:00.556Z,40.36
2022-08-10T15:44:38.940Z,40.11
2022-08-10T15:47:10.447Z,39.66
2022-08-10T15:49:46.434Z,41.43
2022-08-10T15:52:40.163Z,42.17
2022-08-10T15:55:42.660Z,39.75
2022-08-10T15:58:04.561Z,42.44
2022-08-10T16:00:33.580Z,42.93
2022-08-10T16:03:05.276Z,41.42
2022-08-10T16:06:02.288Z,39.85
2022-08-10T16:08:37.373Z,40.02
2022-08-10T16:11:37.447Z,39.21
2022-08-10T16:14:14.056Z,40.70
2022-08-10T16:16:42.847Z,40.05
2022-08-10T16:19:22.516Z,39.67
2022-08-10T16:22:03.184Z,39.29
2022-08-10T16:24:51.919Z,40.16
2022-08-10T16:27:21.594Z,42.49
2022-08-10T16:29:54.431Z,40.13
2022-08-10T16:32:25.490Z,39.68
2022-08-10T16:34:54.243Z,39.79
2022-08-10T16:37:23.964Z,40.62
2022-08-10T16:39:58.234Z,39.46
2022-08-10T16:42:30.729Z,39.49
2022-08-10T16:45:02.706Z,38.09
2022-08-10T16:47:32.364Z,38.06
2022-08-10T16:50:04.017Z,38.13
2022-08-10T16:52:34.468Z,38.62
2022-08-10T16:55:23.706Z,38.63
2022-08-10T16:57:55.408Z,38.23
2022-08-10T17:00:24.265Z,39.98
2022-08-10T17:02:54.084Z,39.14
2022-08-10T17:06:09.878Z,39.64
2022-08-10T17:08:15.978Z,38.70
2022-08-10T17:10:44.219Z,38.13
2022-08-10T17:13:13.513Z,37.86
2022-08-10T17:15:48.410Z,38.59
2022-08-10T17:18:27.560Z,38.47
2022-08-10T17:20:57.147Z,39.35
2022-08-10T17:23:29.712Z,39.74
2022-08-10T17:26:01.090Z,39.17
2022-08-10T17:28:34.487Z,38.29
2022-08-10T17:31:54.060Z,37.80
2022-08-10T17:34:02.844Z,37.47
2022-08-10T17:36:34.007Z,37.15
2022-08-10T17:39:04.217Z,36.76
2022-08-10T17:41:33.670Z,35.69
2022-08-10T17:44:03.514Z,35.39
2022-08-10T17:46:34.037Z,35.27
2022-08-10T17:49:06.927Z,35.08
2022-08-10T17:51:35.203Z,34.19
2022-08-10T17:54:08.994Z,33.40
2022-08-10T17:56:37.949Z,33.22
2022-08-10T17:59:14.460Z,33.19
2022-08-10T18:02:01.350Z,32.62
2022-08-10T18:04:41.563Z,32.76
2022-08-10T18:07:11.551Z,32.49
2022-08-10T18:09:44.828Z,32.60
2022-08-10T18:12:18.264Z,32.31
2022-08-10T18:14:48.680Z,31.86
2022-08-10T18:17:19.989Z,31.58
2022-08-10T18:19:52.028Z,31.56
2022-08-10T18:22:20.505Z,31.39
2022-08-10T18:24:50.818Z,31.33
2022-08-10T18:27:19.714Z,31.13
2022-08-10T18:29:51.261Z,30.98
2022-08-10T18:32:20.446Z,30.60
2022-08-10T18:34:49.593Z,30.43
2022-08-10T18:37:20.423Z,30.59
2022-08-10T18:39:50.595Z,30.64
2022-08-10T18:42:22.661Z,30.50
2022-08-10T18:44:54.806Z,30.25
2022-08-10T18:47:30.366Z,30.19
2022-08-10T18:50:01.507Z,29.98
2022-08-10T18:52:31.573Z,29.81
2022-08-10T18:55:22.977Z,29.72
2022-08-10T18:58:39.517Z,29.71
2022-08-10T19:01:17.540Z,29.52
2022-08-10T19:04:19.172Z,29.21
2022-08-10T19:07:21.113Z,29.09
2022-08-10T19:09:56.220Z,29.05
2022-08-10T19:12:40.906Z,28.90
2022-08-10T19:15:23.988Z,28.90
2022-08-10T19:18:12.854Z,28.73
2022-08-10T19:20:48.221Z,28.59
2022-08-10T19:23:39.789Z,28.36
2022-08-10T19:26:42.281Z,28.16
2022-08-10T19:30:08.925Z,28.05
2022-08-10T19:32:21.484Z,27.95
2022-08-10T19:34:59.700Z,27.83
2022-08-10T19:37:33.490Z,27.68
2022-08-10T19:40:13.331Z,27.46
2022-08-10T19:42:44.025Z,27.43
2022-08-10T19:46:00.627Z,27.24
2022-08-10T19:48:14.870Z,27.24
2022-08-10T19:50:45.975Z,27.12
2022-08-10T19:53:24.738Z,27.20
2022-08-10T19:56:13.124Z,27.08
2022-08-10T19:58:51.831Z,26.97
2022-08-10T20:01:21.529Z,26.95
2022-08-10T20:04:04.317Z,26.87
2022-08-10T20:06:39.138Z,26.76
2022-08-10T20:09:11.044Z,26.58
2022-08-10T20:11:50.263Z,26.58
2022-08-10T20:14:22.718Z,26.68
2022-08-10T20:16:56.193Z,26.48
2022-08-10T20:19:54.018Z,26.46
2022-08-10T20:22:29.843Z,26.44
2022-08-10T20:25:02.106Z,26.29
2022-08-10T20:27:59.046Z,26.14
2022-08-10T20:30:25.142Z,26.07
2022-08-10T20:32:57.726Z,26.04
2022-08-10T20:35:27.143Z,26.02
2022-08-10T20:38:03.714Z,25.98
2022-08-10T20:40:39.537Z,26.08
2022-08-10T20:43:10.918Z,25.93
2022-08-10T20:46:06.997Z,25.80
2022-08-10T20:48:37.618Z,25.77
2022-08-10T20:51:09.351Z,25.76
2022-08-10T20:53:44.853Z,25.79
2022-08-10T20:56:18.313Z,25.67
2022-08-10T20:59:17.787Z,25.69
2022-08-10T21:02:07.064Z,25.57
2022-08-10T21:04:48.793Z,25.44
2022-08-10T21:08:01.307Z,25.42
2022-08-10T21:10:49.896Z,25.37
2022-08-10T21:13:49.463Z,25.24
2022-08-10T21:16:28.826Z,25.27
2022-08-10T21:19:24.034Z,25.23
2022-08-10T21:22:08.281Z,25.16
2022-08-10T21:24:40.902Z,25.05
2022-08-10T21:27:22.583Z,25.05
2022-08-10T21:30:00.282Z,24.90
2022-08-10T21:32:39.161Z,24.87
2022-08-10T21:35:20.352Z,24.77
2022-08-10T21:38:08.944Z,24.77
2022-08-10T21:41:17.603Z,24.70
2022-08-10T21:44:08.713Z,24.69
2022-08-10T21:47:09.551Z,24.58
2022-08-10T21:50:07.180Z,24.51
2022-08-10T21:53:03.816Z,24.65
2022-08-10T21:56:01.000Z,24.62
2022-08-10T21:58:52.084Z,24.60
2022-08-10T22:01:41.796Z,24.54
2022-08-10T22:04:29.425Z,24.52
2022-08-10T22:07:17.835Z,24.38
2022-08-10T22:10:07.991Z,24.16
2022-08-10T22:12:59.669Z,24.17
2022-08-10T22:16:05.354Z,23.97
2022-08-10T22:18:58.851Z,23.60
2022-08-10T22:21:57.245Z,23.53
2022-08-10T22:24:52.450Z,23.43
2022-08-10T22:27:48.148Z,23.35
2022-08-10T22:30:36.482Z,23.20
2022-08-10T22:33:46.594Z,23.11
2022-08-10T22:36:56.236Z,22.92
2022-08-10T22:40:10.185Z,22.90
2022-08-10T22:43:10.959Z,22.87
2022-08-10T22:46:03.562Z,22.90
2022-08-10T22:48:51.038Z,22.81
2022-08-10T22:51:24.047Z,22.79
2022-08-10T22:54:31.298Z,22.78
2022-08-10T22:57:18.499Z,22.80
2022-08-10T22:59:46.537Z,22.77
2022-08-10T23:02:26.655Z,22.85
2022-08-10T23:04:57.913Z,22.87
2022-08-10T23:07:28.078Z,22.92
2022-08-10T23:09:59.308Z,22.91
2022-08-10T23:12:32.249Z,22.87
2022-08-10T23:15:18.270Z,22.90
2022-08-10T23:18:09.382Z,22.83
2022-08-10T23:20:38.246Z,22.76
2022-08-10T23:23:10.089Z,22.56
2022-08-10T23:25:56.631Z,22.62
2022-08-10T23:28:55.442Z,22.49
2022-08-10T23:31:16.397Z,22.41
2022-08-10T23:33:46.522Z,22.27
2022-08-10T23:36:34.268Z,22.17
2022-08-10T23:39:25.846Z,22.18
2022-08-10T23:41:56.278Z,22.18
2022-08-10T23:44:25.229Z,22.30
2022-08-10T23:46:53.538Z,22.43
2022-08-10T23:49:23.243Z,22.36
2022-08-10T23:51:55.904Z,22.27
2022-08-10T23:54:25.373Z,22.36
2022-08-10T23:57:00.747Z,22.17
2022-08-10T23:59:31.861Z,22.04
